Time;durP1;ratioP1;P1;durP2;ratioP2;P2;SDS_P1;SDS_P2;PMS_P1;PMS_P2;Temp;Humidity;BMP_temperature;BMP_pressure;BME280_temperature;BME280_humidity;BME280_pressure;Samples;Min_cycle;Max_cycle;Signal;HPM_P1;HPM_P2
2022/12/14 00:01:52;;;;;;;;;;;;;;;-1.93;69.20;97936.31;10220937;23;19955;-74
2022/12/14 00:05:56;;;;;;;;;;;;;;;-1.91;69.86;97934.66;10224909;23;20311;-74
2022/12/14 00:10:01;;;;;;;;;;;;;;;-1.93;69.76;97928.66;10227479;23;19952;-75
2022/12/14 00:14:04;;;;;;;;;;;;;;;-1.91;69.91;97924.47;10230046;23;19920;-75
2022/12/14 00:18:09;;;;;;;;;;;;;;;-1.89;68.66;97921.94;10196306;23;19999;-74
2022/12/14 00:22:19;;;;;;;;;;;;;;;-1.87;68.88;97903.34;10203475;23;19924;-75
2022/12/14 00:26:29;;;;;;;;;;;;;;;-1.86;68.78;97905.06;10203309;23;20298;-75
2022/12/14 00:30:33;;;;;;;;;;;;;;;-1.87;68.42;97905.91;10222195;23;20012;-75
2022/12/14 00:34:36;;;;;;;;;;;;;;;-1.84;68.88;97911.03;10190317;22;19924;-75
2022/12/14 00:38:37;;;;;;;;;;;;;;;-1.82;68.77;97929.72;10228166;23;19999;-76
2022/12/14 00:42:39;;;;;;;;;;;;;;;-1.82;68.25;97918.69;10203666;23;19966;-76
2022/12/14 00:46:40;;;;;;;;;;;;;;;-1.84;68.69;97900.00;10197531;23;19944;-76
2022/12/14 00:50:46;;;;;;;;;;;;;;;-1.82;68.73;97901.75;10205457;23;19974;-75
2022/12/14 00:54:49;;;;;;;;;;;;;;;-1.82;68.33;97903.44;10231682;23;19931;-76
2022/12/14 00:58:51;;;;;;;;;;;;;;;-1.79;68.73;97882.31;10205957;23;20414;-76
2022/12/14 01:02:52;;;;;;;;;;;;;;;-1.82;69.11;97861.06;10223927;23;19999;-76
2022/12/14 01:06:54;;;;;;;;;;;;;;;-1.82;68.09;97858.50;10206006;23;20003;-76
2022/12/14 01:10:55;;;;;;;;;;;;;;;-1.82;68.44;97844.94;10204053;23;19931;-76
2022/12/14 01:14:57;;;;;;;;;;;;;;;-1.81;68.28;97849.19;10207877;23;20011;-76
2022/12/14 01:18:59;;;;;;;;;;;;;;;-1.82;69.02;97853.41;10222699;23;19999;-76
2022/12/14 01:23:01;;;;;;;;;;;;;;;-1.79;68.87;97839.06;10203336;23;19924;-76
2022/12/14 01:27:02;;;;;;;;;;;;;;;-1.79;68.99;97850.09;10204155;23;20022;-75
2022/12/14 01:31:06;;;;;;;;;;;;;;;-1.80;68.36;97833.09;10196307;23;20483;-76
2022/12/14 01:35:07;;;;;;;;;;;;;;;-1.79;68.63;97824.66;10204175;23;19924;-76
2022/12/14 01:39:14;;;;;;;;;;;;;;;-1.77;68.47;97845.03;10204243;23;19999;-76
2022/12/14 01:43:15;;;;;;;;;;;;;;;-1.76;68.94;97860.34;10230016;23;19959;-76
2022/12/14 01:47:25;;;;;;;;;;;;;;;-1.71;69.64;97852.78;10198313;23;19924;-76
2022/12/14 01:51:28;;;;;;;;;;;;;;;-1.68;68.65;97868.09;10231265;23;19970;-76
2022/12/14 01:55:45;;;;;;;;;;;;;;;-1.64;68.74;97862.22;10230653;23;20236;-76
2022/12/14 01:59:49;;;;;;;;;;;;;;;-1.63;68.43;97851.22;10229360;23;19928;-76
2022/12/14 02:03:52;;;;;;;;;;;;;;;-1.62;69.25;97860.56;10204157;23;19924;-76
2022/12/14 02:07:55;;;;;;;;;;;;;;;-1.62;69.39;97858.88;10230471;23;19924;-76
2022/12/14 02:12:03;;;;;;;;;;;;;;;-1.57;69.31;97871.72;10229212;23;19924;-76
2022/12/14 02:16:04;;;;;;;;;;;;;;;-1.57;68.60;97864.09;10205357;23;19920;-76
2022/12/14 02:20:06;;;;;;;;;;;;;;;-1.60;68.83;97862.34;10202867;23;20019;-76
2022/12/14 02:24:16;;;;;;;;;;;;;;;-1.58;69.28;97854.72;10204375;23;19970;-76
2022/12/14 02:28:20;;;;;;;;;;;;;;;-1.59;68.90;97843.69;10200807;23;20007;-76
2022/12/14 02:32:35;;;;;;;;;;;;;;;-1.58;69.25;97832.69;10197019;23;19962;-76
2022/12/14 02:36:59;;;;;;;;;;;;;;;-1.56;69.66;97822.53;10228948;23;20331;-76
2022/12/14 02:41:00;;;;;;;;;;;;;;;-1.56;69.47;97820.84;10203678;23;20704;-76
2022/12/14 02:45:21;;;;;;;;;;;;;;;-1.56;69.58;97823.38;10201900;23;20006;-76
2022/12/14 02:49:25;;;;;;;;;;;;;;;-1.55;69.93;97825.09;10229672;23;20540;-76
2022/12/14 02:53:44;;;;;;;;;;;;;;;-1.53;70.33;97835.31;10204197;23;20599;-77
2022/12/14 02:57:56;;;;;;;;;;;;;;;-1.52;70.03;97827.69;10229466;23;19924;-76
2022/12/14 03:02:00;;;;;;;;;;;;;;;-1.52;69.76;97822.59;10225166;23;19952;-76
2022/12/14 03:06:13;;;;;;;;;;;;;;;-1.52;70.15;97826.84;10208512;23;19924;-76
2022/12/14 03:10:18;;;;;;;;;;;;;;;-1.49;70.24;97815.84;10235129;23;19985;-76
2022/12/14 03:14:24;;;;;;;;;;;;;;;-1.46;69.76;97805.72;10210129;23;19974;-76
2022/12/14 03:18:28;;;;;;;;;;;;;;;-1.47;69.61;97794.69;10200688;23;20044;-76
2022/12/14 03:22:34;;;;;;;;;;;;;;;-1.47;69.35;97786.19;10208511;23;19963;-76
2022/12/14 03:26:42;;;;;;;;;;;;;;;-1.51;69.71;97798.00;10234061;23;20007;-76
2022/12/14 03:30:51;;;;;;;;;;;;;;;-1.52;70.52;97803.94;10227697;23;19931;-76
2022/12/14 03:35:13;;;;;;;;;;;;;;;-1.53;71.07;97800.53;10208113;23;19920;-76
2022/12/14 03:39:18;;;;;;;;;;;;;;;-1.53;72.19;97802.22;10234093;23;19959;-76
2022/12/14 03:43:31;;;;;;;;;;;;;;;-1.54;72.24;97809.00;10234919;23;20189;-76
2022/12/14 03:47:53;;;;;;;;;;;;;;;-1.56;72.50;97799.63;10203051;23;19920;-76
2022/12/14 03:51:58;;;;;;;;;;;;;;;-1.58;72.48;97802.16;10237390;23;19960;-76
2022/12/14 03:56:02;;;;;;;;;;;;;;;-1.57;73.38;97800.47;10211038;23;19962;-76
2022/12/14 04:00:09;;;;;;;;;;;;;;;-1.54;73.00;97792.88;10205231;23;20011;-76
2022/12/14 04:04:13;;;;;;;;;;;;;;;-1.53;73.28;97759.81;10234139;23;20322;-76
2022/12/14 04:08:22;;;;;;;;;;;;;;;-1.51;72.96;97772.56;10208951;23;19931;-76
2022/12/14 04:21:16;;;;;;;;;;;;;;;-1.61;74.65;97760.53;10232142;23;20000;-76
2022/12/14 04:29:55;;;;;;;;;;;;;;;-1.56;74.50;97769.94;10232712;23;20504;-76
2022/12/14 04:34:01;;;;;;;;;;;;;;;-1.54;74.09;97782.69;10199120;23;20244;-76
2022/12/14 04:38:02;;;;;;;;;;;;;;;-1.48;74.47;97766.66;10206214;23;19955;-76
2022/12/14 04:42:05;;;;;;;;;;;;;;;-1.44;74.66;97776.91;10207191;23;19975;-76
2022/12/14 04:46:09;;;;;;;;;;;;;;;-1.41;74.42;97771.91;10226236;23;20003;-76
2022/12/14 04:50:18;;;;;;;;;;;;;;;-1.37;74.26;97770.25;10208134;23;20300;-76
2022/12/14 04:54:25;;;;;;;;;;;;;;;-1.39;74.67;97761.75;10233640;23;20338;-76
2022/12/14 04:58:29;;;;;;;;;;;;;;;-1.41;73.81;97758.31;10206142;23;19956;-76
2022/12/14 05:02:50;;;;;;;;;;;;;;;-1.44;74.08;97763.34;10199323;23;20019;-76
2022/12/14 05:07:04;;;;;;;;;;;;;;;-1.42;74.34;97742.19;10233093;23;19930;-76
2022/12/14 05:11:06;;;;;;;;;;;;;;;-1.44;74.27;97720.06;10205987;23;19967;-76
2022/12/14 05:15:33;;;;;;;;;;;;;;;-1.43;73.74;97714.16;10224215;23;19932;-76
2022/12/14 05:19:34;;;;;;;;;;;;;;;-1.42;74.38;97704.00;10232608;23;20020;-76
2022/12/14 05:23:35;;;;;;;;;;;;;;;-1.43;73.40;97706.53;10206367;23;19969;-76
2022/12/14 05:27:37;;;;;;;;;;;;;;;-1.44;73.98;97712.44;10205602;23;19931;-76
2022/12/14 05:31:38;;;;;;;;;;;;;;;-1.41;73.40;97689.59;10224651;23;20399;-76
2022/12/14 05:35:40;;;;;;;;;;;;;;;-1.40;73.83;97687.06;10231240;23;19962;-76
2022/12/14 05:39:41;;;;;;;;;;;;;;;-1.40;73.47;97688.75;10206735;23;20007;-76
2022/12/14 05:43:43;;;;;;;;;;;;;;;-1.44;73.30;97681.88;10230329;23;20515;-76
2022/12/14 05:47:44;;;;;;;;;;;;;;;-1.46;72.58;97698.81;10199422;23;20333;-76
2022/12/14 05:51:46;;;;;;;;;;;;;;;-1.47;72.75;97699.66;10204860;23;20003;-76
2022/12/14 05:55:48;;;;;;;;;;;;;;;-1.49;72.81;97694.56;10205667;23;19928;-76
2022/12/14 05:59:49;;;;;;;;;;;;;;;-1.48;73.11;97705.59;10231627;23;19978;-76
2022/12/14 06:03:51;;;;;;;;;;;;;;;-1.50;72.68;97692.84;10223752;23;20624;-76
2022/12/14 06:07:52;;;;;;;;;;;;;;;-1.47;73.49;97689.47;10230136;23;20376;-76
2022/12/14 06:11:54;;;;;;;;;;;;;;;-1.46;72.70;97683.56;10227537;23;20320;-76
2022/12/14 06:16:05;;;;;;;;;;;;;;;-1.44;72.28;97674.25;10223318;23;20314;-76
2022/12/14 06:20:12;;;;;;;;;;;;;;;-1.46;72.72;97664.06;10203673;23;20196;-75
2022/12/14 06:24:16;;;;;;;;;;;;;;;-1.44;72.62;97659.84;10230753;23;20006;-75
2022/12/14 06:28:18;;;;;;;;;;;;;;;-1.41;73.05;97651.41;10179563;23;19955;-75
2022/12/14 06:32:19;;;;;;;;;;;;;;;-1.40;72.97;97633.63;10195465;23;20007;-75
2022/12/14 06:36:22;;;;;;;;;;;;;;;-1.38;72.78;97639.59;10203204;23;19931;-75
2022/12/14 06:40:26;;;;;;;;;;;;;;;-1.39;73.82;97637.88;10178989;23;19920;-75
2022/12/14 06:44:27;;;;;;;;;;;;;;;-1.42;74.49;97642.06;10227518;23;19928;-75
2022/12/14 06:48:28;;;;;;;;;;;;;;;-1.42;75.13;97635.28;10222746;23;19999;-76
2022/12/14 06:52:30;;;;;;;;;;;;;;;-1.42;75.79;97630.19;10229290;23;19960;-76
2022/12/14 06:56:31;;;;;;;;;;;;;;;-1.49;76.11;97637.69;10227768;23;20348;-76
2022/12/14 07:00:33;;;;;;;;;;;;;;;-1.47;76.85;97641.13;10188414;23;19956;-76
2022/12/14 07:04:35;;;;;;;;;;;;;;;-1.43;77.96;97633.59;10228271;23;19955;-76
2022/12/14 07:08:37;;;;;;;;;;;;;;;-1.41;78.31;97631.06;10250556;23;20676;-75
2022/12/14 07:12:38;;;;;;;;;;;;;;;-1.41;78.04;97641.25;10201826;23;19963;-75
2022/12/14 07:16:40;;;;;;;;;;;;;;;-1.41;78.03;97631.91;10195991;23;19924;-75
2022/12/14 07:21:13;;;;;;;;;;;;;;;-1.39;78.22;97634.47;10202566;23;19960;-75
2022/12/14 07:25:15;;;;;;;;;;;;;;;-1.40;79.05;97627.69;10202199;23;19965;-75
2022/12/14 07:29:16;;;;;;;;;;;;;;;-1.40;79.56;97613.25;10228337;23;20285;-75
2022/12/14 07:33:19;;;;;;;;;;;;;;;-1.40;79.94;97607.31;10228603;23;20299;-75
2022/12/14 07:37:20;;;;;;;;;;;;;;;-1.38;79.81;97610.72;10214557;23;19935;-75
2022/12/14 07:41:23;;;;;;;;;;;;;;;-1.45;80.29;97617.41;10202964;23;19964;-75
2022/12/14 07:45:25;;;;;;;;;;;;;;;-1.47;79.74;97616.53;10197832;23;19970;-75
2022/12/14 07:49:27;;;;;;;;;;;;;;;-1.50;80.26;97619.03;10201967;23;19928;-74
2022/12/14 07:53:28;;;;;;;;;;;;;;;-1.48;80.62;97626.69;10227241;23;19933;-74
2022/12/14 07:57:32;;;;;;;;;;;;;;;-1.47;81.02;97633.50;10200677;23;20490;-74
2022/12/14 08:01:35;;;;;;;;;;;;;;;-1.44;80.44;97629.28;10218979;23;20318;-74
2022/12/14 08:05:37;;;;;;;;;;;;;;;-1.42;80.93;97635.28;10200017;23;19928;-75
2022/12/14 08:09:38;;;;;;;;;;;;;;;-1.41;80.57;97639.53;10199386;23;20016;-73
2022/12/14 08:13:42;;;;;;;;;;;;;;;-1.39;81.06;97637.03;10223550;23;19927;-74
2022/12/14 08:17:43;;;;;;;;;;;;;;;-1.36;81.06;97645.53;10195159;23;19924;-74
2022/12/14 08:21:45;;;;;;;;;;;;;;;-1.34;81.05;97632.84;10201751;23;19959;-75
2022/12/14 08:25:51;;;;;;;;;;;;;;;-1.33;80.38;97644.72;10199686;23;20019;-75
2022/12/14 08:29:53;;;;;;;;;;;;;;;-1.34;80.75;97636.25;10201169;23;19935;-75
2022/12/14 08:33:56;;;;;;;;;;;;;;;-1.30;80.42;97639.69;10195394;23;19935;-75
2022/12/14 08:37:58;;;;;;;;;;;;;;;-1.31;80.24;97632.88;10208129;23;20315;-76
2022/12/14 08:41:59;;;;;;;;;;;;;;;-1.30;81.12;97635.44;10208222;23;19925;-75
2022/12/14 08:46:01;;;;;;;;;;;;;;;-1.25;80.78;97646.56;10207887;23;19924;-75
2022/12/14 08:50:02;;;;;;;;;;;;;;;-1.23;81.22;97647.44;10208522;23;19967;-75
2022/12/14 08:54:04;;;;;;;;;;;;;;;-1.20;80.54;97650.84;10206420;23;20007;-74
2022/12/14 08:58:06;;;;;;;;;;;;;;;-1.17;80.75;97646.66;10231414;23;19935;-75
2022/12/14 09:02:08;;;;;;;;;;;;;;;-1.21;80.60;97637.28;10195618;23;20299;-74
2022/12/14 09:06:11;;;;;;;;;;;;;;;-1.18;81.78;97660.22;10203450;23;19943;-75
2022/12/14 09:10:13;;;;;;;;;;;;;;;-1.10;81.74;97655.22;10231093;23;19931;-74
2022/12/14 09:14:14;;;;;;;;;;;;;;;-1.05;81.66;97658.72;10205540;23;20175;-75
2022/12/14 09:18:15;;;;;;;;;;;;;;;-1.00;82.09;97657.06;10200777;23;19978;-75
2022/12/14 09:22:17;;;;;;;;;;;;;;;-0.98;82.13;97665.56;10231366;23;19920;-75
2022/12/14 09:26:20;;;;;;;;;;;;;;;-1.01;82.37;97652.81;10232501;23;19940;-75
2022/12/14 09:30:21;;;;;;;;;;;;;;;-0.99;81.43;97664.72;10226239;23;20122;-76
2022/12/14 09:34:28;;;;;;;;;;;;;;;-1.00;81.44;97675.75;10232203;23;19928;-76
2022/12/14 09:38:30;;;;;;;;;;;;;;;-0.97;81.82;97677.47;10180592;23;20232;-76
2022/12/14 09:42:46;;;;;;;;;;;;;;;-1.03;81.63;97678.25;10205466;23;19936;-76
2022/12/14 09:47:00;;;;;;;;;;;;;;;-0.98;82.36;97680.84;10205072;23;19905;-76
2022/12/14 09:51:02;;;;;;;;;;;;;;;-0.94;81.89;97692.78;10261430;23;19908;-75
2022/12/14 09:55:06;;;;;;;;;;;;;;;-0.90;82.69;97686.91;10276251;23;19920;-76
2022/12/14 09:59:13;;;;;;;;;;;;;;;-0.84;82.32;97694.63;10233049;23;19920;-76
2022/12/14 10:03:33;;;;;;;;;;;;;;;-0.78;82.60;97694.72;10197317;23;19921;-76
2022/12/14 10:07:39;;;;;;;;;;;;;;;-0.75;82.65;97691.34;10205788;23;19924;-76
2022/12/14 10:11:49;;;;;;;;;;;;;;;-0.69;82.30;97683.78;10205792;23;20298;-76
2022/12/14 10:15:57;;;;;;;;;;;;;;;-0.68;82.42;97688.91;10224233;23;20338;-75
2022/12/14 10:20:21;;;;;;;;;;;;;;;-0.64;82.36;97694.88;10230938;23;19928;-75
2022/12/14 10:24:26;;;;;;;;;;;;;;;-0.61;81.88;97697.47;10188755;23;19987;-76
2022/12/14 10:28:47;;;;;;;;;;;;;;;-0.56;81.92;97707.72;10229942;23;19924;-76
2022/12/14 10:32:51;;;;;;;;;;;;;;;-0.55;81.77;97704.31;10197625;23;19928;-76
2022/12/14 10:36:53;;;;;;;;;;;;;;;-0.68;80.87;97703.34;10229789;23;19935;-76
2022/12/14 10:41:18;;;;;;;;;;;;;;;-0.64;81.20;97688.09;10179208;23;20323;-76
2022/12/14 10:45:39;;;;;;;;;;;;;;;-0.57;81.59;97677.97;10201598;23;20244;-76
2022/12/14 10:49:49;;;;;;;;;;;;;;;-0.53;82.26;97684.84;10204418;23;19935;-76
2022/12/14 10:53:53;;;;;;;;;;;;;;;-0.49;82.04;97684.88;10203192;23;19955;-76
2022/12/14 10:57:55;;;;;;;;;;;;;;;-0.53;81.75;97684.84;10229176;23;20260;-77
2022/12/14 11:01:59;;;;;;;;;;;;;;;-0.56;81.79;97680.53;10187250;23;19940;-76
2022/12/14 11:06:18;;;;;;;;;;;;;;;-0.55;81.84;97691.56;10226423;23;20078;-76
2022/12/14 11:10:39;;;;;;;;;;;;;;;-0.52;82.33;97691.66;10232017;23;19929;-76
2022/12/14 11:15:05;;;;;;;;;;;;;;;-0.51;82.65;97693.34;10202265;23;19934;-76
2022/12/14 11:19:17;;;;;;;;;;;;;;;-0.54;83.33;97685.63;10203278;23;20008;-77
2022/12/14 11:23:20;;;;;;;;;;;;;;;-0.48;83.26;97678.94;10229235;23;20015;-77
2022/12/14 11:27:21;;;;;;;;;;;;;;;-0.41;83.35;97678.16;10203328;23;20006;-77
2022/12/14 11:31:23;;;;;;;;;;;;;;;-0.38;83.19;97683.28;10224618;23;19981;-77
2022/12/14 11:35:24;;;;;;;;;;;;;;;-0.23;83.21;97676.66;10228095;23;19924;-77
2022/12/14 11:39:26;;;;;;;;;;;;;;;-0.20;83.21;97690.28;10227663;23;20011;-77
2022/12/14 11:43:29;;;;;;;;;;;;;;;-0.20;83.08;97700.47;10200606;23;19964;-77
2022/12/14 11:47:31;;;;;;;;;;;;;;;-0.28;82.21;97691.91;10221513;23;19924;-77
2022/12/14 11:51:32;;;;;;;;;;;;;;;-0.26;82.51;97681.72;10199875;23;19964;-77
2022/12/14 11:55:37;;;;;;;;;;;;;;;-0.17;82.70;97682.69;10201642;23;19924;-77
2022/12/14 11:59:41;;;;;;;;;;;;;;;-0.09;82.65;97675.09;10202409;23;20023;-77
2022/12/14 12:03:48;;;;;;;;;;;;;;;-0.04;83.13;97676.84;10226549;23;20322;-77
2022/12/14 12:07:50;;;;;;;;;;;;;;;-0.06;82.20;97678.53;10202861;23;19924;-77
2022/12/14 12:11:51;;;;;;;;;;;;;;;-0.02;82.37;97679.41;10204818;23;20031;-77
2022/12/14 12:15:55;;;;;;;;;;;;;;;0.07;82.60;97687.16;10218764;23;20000;-77
2022/12/14 12:20:49;;;;;;;;;;;;;;;0.15;81.85;97697.44;10232491;23;19946;-77
2022/12/14 12:35:51;;;;;;;;;;;;;;;0.23;81.57;97703.47;10371897;22;19930;-77
2022/12/14 12:40:25;;;;;;;;;;;;;;;0.30;81.51;97690.75;10341071;22;19951;-77
2022/12/14 12:45:07;;;;;;;;;;;;;;;0.29;80.77;97690.75;10332329;22;19923;-77
2022/12/14 12:49:19;;;;;;;;;;;;;;;0.29;80.91;97693.31;10288008;23;19923;-77
2022/12/14 12:53:43;;;;;;;;;;;;;;;0.36;80.97;97696.75;10285121;22;20010;-77
2022/12/14 12:58:08;;;;;;;;;;;;;;;0.37;81.08;97707.00;10314991;22;20196;-77
2022/12/14 13:02:38;;;;;;;;;;;;;;;0.39;80.70;97700.22;10269813;23;19928;-77
2022/12/14 13:07:37;;;;;;;;;;;;;;;0.34;80.18;97701.00;10283779;23;19924;-78
2022/12/14 13:11:51;;;;;;;;;;;;;;;0.32;80.33;97707.78;10294673;23;19942;-77
2022/12/14 13:16:19;;;;;;;;;;;;;;;0.30;80.37;97720.53;10300065;22;20778;-77
2022/12/14 13:20:37;;;;;;;;;;;;;;;0.27;80.10;97720.50;10287628;23;19955;-77
2022/12/14 13:25:20;;;;;;;;;;;;;;;0.27;80.53;97735.84;10286011;22;19924;-77
2022/12/14 13:30:13;;;;;;;;;;;;;;;0.29;80.61;97752.00;10291954;22;19934;-77
2022/12/14 13:34:35;;;;;;;;;;;;;;;0.33;80.74;97745.22;10284339;22;20035;-77
2022/12/14 13:39:22;;;;;;;;;;;;;;;0.36;81.20;97742.69;10279916;23;20357;-77
2022/12/14 13:43:37;;;;;;;;;;;;;;;0.38;80.99;97743.59;10258369;23;19920;-77
2022/12/14 13:47:57;;;;;;;;;;;;;;;0.40;81.11;97752.13;10266491;23;19923;-76
2022/12/14 13:52:54;;;;;;;;;;;;;;;0.38;80.17;97762.31;10280547;23;19920;-76
2022/12/14 13:57:11;;;;;;;;;;;;;;;0.37;80.36;97765.72;10125540;23;19967;-77
2022/12/14 14:01:42;;;;;;;;;;;;;;;0.39;79.94;97761.47;10080014;23;19931;-78
2022/12/14 14:05:44;;;;;;;;;;;;;;;0.35;80.34;97758.84;10102546;23;20354;-78
2022/12/14 14:09:47;;;;;;;;;;;;;;;0.37;80.73;97760.63;10053843;23;19926;-77
2022/12/14 14:13:58;;;;;;;;;;;;;;;0.40;80.54;97754.69;10100932;23;19929;-78
2022/12/14 14:18:17;;;;;;;;;;;;;;;0.46;80.39;97747.06;10046180;23;20012;-78
2022/12/14 14:22:19;;;;;;;;;;;;;;;0.46;79.90;97757.28;10101866;23;19928;-77
2022/12/14 14:26:25;;;;;;;;;;;;;;;0.42;79.35;97764.06;10109460;23;19920;-77
2022/12/14 14:30:37;;;;;;;;;;;;;;;0.46;79.67;97778.56;10223090;23;20327;-78
2022/12/14 14:34:53;;;;;;;;;;;;;;;0.43;79.50;97788.75;10224017;23;19920;-76
2022/12/14 14:39:00;;;;;;;;;;;;;;;0.43;79.38;97809.16;10227520;23;20427;-78
2022/12/14 14:43:31;;;;;;;;;;;;;;;0.39;79.31;97814.22;10227495;23;20394;-77
2022/12/14 14:47:37;;;;;;;;;;;;;;;0.38;79.33;97809.97;10221374;23;19967;-77
2022/12/14 14:51:39;;;;;;;;;;;;;;;0.35;79.28;97807.34;10227347;23;20030;-77
2022/12/14 14:55:50;;;;;;;;;;;;;;;0.35;80.09;97823.53;10225936;23;19936;-77
2022/12/14 15:00:00;;;;;;;;;;;;;;;0.33;79.28;97834.56;10230129;23;20006;-77
2022/12/14 15:04:48;;;;;;;;;;;;;;;0.28;79.92;97832.84;10228646;23;20479;-78
2022/12/14 15:08:59;;;;;;;;;;;;;;;0.22;79.80;97848.09;10226421;23;19931;-77
2022/12/14 15:13:23;;;;;;;;;;;;;;;0.18;79.95;97846.34;10227388;23;20011;-78
2022/12/14 15:18:12;;;;;;;;;;;;;;;0.15;81.26;97853.94;10221606;23;20244;-77
2022/12/14 15:22:15;;;;;;;;;;;;;;;0.10;81.20;97860.69;10227384;23;19924;-77
2022/12/14 15:26:23;;;;;;;;;;;;;;;0.06;81.42;97865.75;10227872;23;20499;-77
2022/12/14 15:30:25;;;;;;;;;;;;;;;0.04;81.29;97867.44;10222898;23;20014;-78
2022/12/14 15:34:27;;;;;;;;;;;;;;;-0.02;81.16;97868.19;10226511;23;19943;-77
2022/12/14 15:38:32;;;;;;;;;;;;;;;-0.05;81.73;97875.81;10227070;23;19994;-78
2022/12/14 15:42:33;;;;;;;;;;;;;;;-0.06;81.55;97877.50;10227286;23;19924;-77
2022/12/14 15:46:39;;;;;;;;;;;;;;;-0.09;81.57;97869.81;10227701;23;20335;-77
2022/12/14 15:50:45;;;;;;;;;;;;;;;-0.10;81.87;97867.25;10202416;23;19924;-77
2022/12/14 15:54:46;;;;;;;;;;;;;;;-0.10;81.94;97885.97;10228570;23;20007;-78
2022/12/14 15:58:49;;;;;;;;;;;;;;;-0.13;81.61;97895.28;10227389;23;19970;-78
2022/12/14 16:02:50;;;;;;;;;;;;;;;-0.16;81.74;97901.19;10251539;23;19924;-78
2022/12/14 16:07:04;;;;;;;;;;;;;;;-0.15;81.87;97899.50;10277292;23;19986;-77
2022/12/14 16:11:17;;;;;;;;;;;;;;;-0.16;82.18;97900.34;10276026;23;19959;-78
2022/12/14 16:15:23;;;;;;;;;;;;;;;-0.20;82.17;97909.59;10272831;22;19924;-78
2022/12/14 16:19:27;;;;;;;;;;;;;;;-0.21;82.54;97909.59;10272795;23;19947;-78
2022/12/14 16:23:34;;;;;;;;;;;;;;;-0.19;83.10;97902.81;10276426;23;19923;-78
2022/12/14 16:27:46;;;;;;;;;;;;;;;-0.21;83.51;97905.34;10274482;23;19930;-78
2022/12/14 16:31:58;;;;;;;;;;;;;;;-0.19;83.55;97903.66;10267975;22;19978;-78
2022/12/14 16:36:01;;;;;;;;;;;;;;;-0.21;83.37;97909.59;10275238;23;20265;-78
2022/12/14 16:40:03;;;;;;;;;;;;;;;-0.26;83.18;97909.53;10275847;23;19924;-78
2022/12/14 16:44:06;;;;;;;;;;;;;;;-0.31;83.47;97918.81;10276311;23;19998;-78
2022/12/14 16:48:16;;;;;;;;;;;;;;;-0.37;83.06;97927.22;10268132;23;20002;-77
2022/12/14 16:52:19;;;;;;;;;;;;;;;-0.39;83.22;97921.25;10277056;23;19990;-78
2022/12/14 16:56:22;;;;;;;;;;;;;;;-0.39;83.49;97925.47;10276902;23;19970;-77
2022/12/14 17:00:25;;;;;;;;;;;;;;;-0.40;83.61;97924.63;10271058;23;20301;-78
2022/12/14 17:09:26;;;;;;;;;;;;;;;-0.46;83.98;97942.38;10005520;23;19929;-78
2022/12/14 17:13:29;;;;;;;;;;;;;;;-0.49;83.72;97952.53;9982409;23;20555;-77
2022/12/14 17:17:32;;;;;;;;;;;;;;;-0.44;84.22;97952.59;9954447;23;19997;-78
2022/12/14 17:21:33;;;;;;;;;;;;;;;-0.43;84.85;97967.94;9957782;23;19948;-78
2022/12/14 17:25:35;;;;;;;;;;;;;;;-0.43;84.69;97962.81;9960885;23;19922;-77
2022/12/14 17:29:37;;;;;;;;;;;;;;;-0.46;84.88;97955.13;9958312;23;20036;-76
2022/12/14 17:33:38;;;;;;;;;;;;;;;-0.46;85.24;97950.03;9971170;23;19930;-75
2022/12/14 17:37:41;;;;;;;;;;;;;;;-0.50;85.56;97948.28;9980088;23;20021;-76
2022/12/14 17:41:43;;;;;;;;;;;;;;;-0.58;85.50;97944.72;9985049;23;19965;-77
2022/12/14 17:45:46;;;;;;;;;;;;;;;-0.64;85.22;97937.84;10145266;22;19931;-78
2022/12/14 17:49:47;;;;;;;;;;;;;;;-0.64;85.48;97944.66;10301684;23;20393;-77
2022/12/14 17:53:50;;;;;;;;;;;;;;;-0.62;85.94;97954.03;10276987;23;19924;-78
2022/12/14 17:57:53;;;;;;;;;;;;;;;-0.66;86.03;97959.06;10275392;23;20608;-78
2022/12/14 18:01:55;;;;;;;;;;;;;;;-0.68;85.60;97959.03;10295590;22;19924;-78
2022/12/14 18:06:00;;;;;;;;;;;;;;;-0.71;85.75;97969.19;10275661;23;19920;-78
2022/12/14 18:10:04;;;;;;;;;;;;;;;-0.70;85.70;97963.25;10277693;23;19924;-78
2022/12/14 18:14:05;;;;;;;;;;;;;;;-0.71;85.74;97968.31;10275900;23;19998;-78
2022/12/14 18:18:08;;;;;;;;;;;;;;;-0.73;86.08;97965.72;10270676;23;19923;-78
2022/12/14 18:22:10;;;;;;;;;;;;;;;-0.71;87.09;97973.41;10276609;23;19924;-78
2022/12/14 18:26:11;;;;;;;;;;;;;;;-0.66;87.02;97964.16;10278379;23;19920;-78
2022/12/14 18:30:13;;;;;;;;;;;;;;;-0.72;87.41;97967.47;10270722;23;19934;-78
2022/12/14 18:34:16;;;;;;;;;;;;;;;-0.75;86.94;97974.19;10276799;23;19998;-78
2022/12/14 18:38:18;;;;;;;;;;;;;;;-0.78;86.74;97979.22;10252270;23;19920;-78
2022/12/14 18:42:22;;;;;;;;;;;;;;;-0.80;86.66;97986.00;10278931;23;20003;-78
2022/12/14 18:46:23;;;;;;;;;;;;;;;-0.83;86.86;97989.34;10273805;22;20481;-78
2022/12/14 18:50:26;;;;;;;;;;;;;;;-0.83;87.39;97988.50;10279118;23;19923;-78
2022/12/14 18:54:27;;;;;;;;;;;;;;;-0.83;86.96;97985.94;10279018;23;20007;-78
2022/12/14 18:58:29;;;;;;;;;;;;;;;-0.85;87.04;97995.25;10302914;23;20577;-78
2022/12/14 19:02:32;;;;;;;;;;;;;;;-0.83;87.12;97993.59;10296335;22;19955;-78
2022/12/14 19:06:44;;;;;;;;;;;;;;;-0.87;87.18;98007.97;10279181;23;19934;-78
2022/12/14 19:10:46;;;;;;;;;;;;;;;-0.83;87.63;98016.50;10278041;23;19928;-78
2022/12/14 19:14:49;;;;;;;;;;;;;;;-0.78;87.65;98020.00;10278734;23;19986;-78
2022/12/14 19:18:56;;;;;;;;;;;;;;;-0.80;87.42;98021.66;10270140;22;19993;-78
2022/12/14 19:22:58;;;;;;;;;;;;;;;-0.86;87.10;98036.84;10302670;23;19964;-78
2022/12/14 19:27:02;;;;;;;;;;;;;;;-0.90;87.24;98038.44;10277094;23;19923;-78
2022/12/14 19:31:10;;;;;;;;;;;;;;;-0.91;87.42;98021.44;10270648;23;19955;-78
2022/12/14 19:35:13;;;;;;;;;;;;;;;-0.94;87.83;98026.50;10277122;23;19924;-78
2022/12/14 19:39:15;;;;;;;;;;;;;;;-0.97;88.13;98031.53;10302978;23;20301;-78
2022/12/14 19:43:17;;;;;;;;;;;;;;;-0.94;88.23;98032.44;10278372;23;20116;-78
2022/12/14 19:47:21;;;;;;;;;;;;;;;-1.00;87.19;98023.84;10271670;22;20027;-78
2022/12/14 19:51:22;;;;;;;;;;;;;;;-1.02;87.71;98028.91;10273468;23;19966;-78
2022/12/14 19:55:25;;;;;;;;;;;;;;;-1.01;88.02;98040.81;10270709;23;19924;-78
2022/12/14 19:59:28;;;;;;;;;;;;;;;-1.04;88.36;98030.56;10277952;23;20190;-78
2022/12/14 20:03:32;;;;;;;;;;;;;;;-1.07;88.03;98038.16;10266427;23;20426;-78
2022/12/14 20:07:34;;;;;;;;;;;;;;;-1.04;88.48;98034.81;10276996;23;19920;-78
2022/12/14 20:11:44;;;;;;;;;;;;;;;-1.09;87.84;98037.25;10274850;23;19920;-78
2022/12/14 20:15:48;;;;;;;;;;;;;;;-1.07;88.88;98039.84;10267628;22;20259;-77
2022/12/14 20:19:50;;;;;;;;;;;;;;;-1.02;88.49;98049.28;10276877;23;19924;-78
2022/12/14 20:23:52;;;;;;;;;;;;;;;-0.98;88.82;98062.94;10274935;23;19923;-78
2022/12/14 20:27:55;;;;;;;;;;;;;;;-0.92;89.08;98063.03;10274255;23;19981;-78
2022/12/14 20:31:56;;;;;;;;;;;;;;;-0.93;88.95;98072.38;10270724;22;20007;-78
2022/12/14 20:36:01;;;;;;;;;;;;;;;-0.91;88.54;98068.16;10274752;23;19947;-78
2022/12/14 20:40:03;;;;;;;;;;;;;;;-0.89;88.32;98064.81;10297497;23;20349;-78
2022/12/14 20:44:15;;;;;;;;;;;;;;;-0.90;88.59;98081.75;10300548;23;19931;-78
2022/12/14 20:48:22;;;;;;;;;;;;;;;-0.86;88.66;98077.63;10271611;23;19923;-78
2022/12/14 20:52:29;;;;;;;;;;;;;;;-0.85;88.64;98084.44;10279590;23;19920;-78
2022/12/14 20:56:33;;;;;;;;;;;;;;;-0.86;88.88;98091.22;10227447;23;19924;-78
2022/12/14 21:00:50;;;;;;;;;;;;;;;-0.87;88.52;98094.59;10273231;22;20585;-78
2022/12/14 21:04:55;;;;;;;;;;;;;;;-0.89;88.76;98093.69;10281310;23;19924;-78
2022/12/14 21:19:07;;;;;;;;;;;;;;;-0.89;88.98;98121.72;9921279;23;19930;-78
2022/12/14 21:23:13;;;;;;;;;;;;;;;-0.87;88.79;98114.97;9981657;23;19926;-78
2022/12/14 21:27:23;;;;;;;;;;;;;;;-0.86;88.72;98114.13;9958676;23;19922;-77
2022/12/14 21:31:24;;;;;;;;;;;;;;;-0.84;89.33;98098.88;9930122;23;20346;-77
2022/12/14 21:35:25;;;;;;;;;;;;;;;-0.82;89.72;98084.47;9960278;23;19937;-77
2022/12/14 21:39:28;;;;;;;;;;;;;;;-0.78;89.52;98082.00;9958398;23;20355;-76
2022/12/14 21:43:30;;;;;;;;;;;;;;;-0.77;89.48;98070.97;9982801;23;19926;-77
2022/12/14 21:47:36;;;;;;;;;;;;;;;-0.77;89.16;98072.69;10046355;23;19925;-77
2022/12/14 21:51:38;;;;;;;;;;;;;;;-0.79;88.22;98070.09;10167402;23;19925;-77